RYR5TV EPKT-LIRA
Flight info
| Callsign | RYR5TV |
|---|---|
| Flight time | N/A |
| Altitude | 36000 |
| Route | BABKO DCT MOMEP DCT VAMOG DCT DIMLO DCT RUGOG DCT EDUGI/N0459F350 DCT GUDPO DCT MOPUV |
| Aircraft | B738/M-SDE2E3FGHIRWXY/LB1 |
Departure
| Time | 2026-05-05 12:28 |
|---|---|
| Airport | Katowice Wojciech Korfanty International Airport (EPKT) |
Arrival
| Time | N/A |
|---|---|
| Airport | Ciampino–G. B. Pastine International Airport (LIRA) |
| Time | Latitude | Longitude | Altitude | Speed | Heading |
|---|---|---|---|---|---|
| 2026-05-05 12:16 | 50.47234 | 19.07558 | 997 ft | 0 kts | 90° |
| 2026-05-05 12:21 | 50.47234 | 19.07577 | 997 ft | 5 kts | 90° |
| 2026-05-05 12:22 | 50.47233 | 19.07677 | 997 ft | 13 kts | 91° |
| 2026-05-05 12:22 | 50.47231 | 19.07829 | 999 ft | 14 kts | 89° |
| 2026-05-05 12:22 | 50.47231 | 19.07979 | 1000 ft | 13 kts | 90° |
| 2026-05-05 12:22 | 50.47231 | 19.08122 | 1003 ft | 13 kts | 91° |
| 2026-05-05 12:23 | 50.47231 | 19.08260 | 1001 ft | 13 kts | 89° |
| 2026-05-05 12:23 | 50.47232 | 19.08411 | 1003 ft | 16 kts | 89° |
| 2026-05-05 12:23 | 50.47232 | 19.08621 | 999 ft | 21 kts | 91° |
| 2026-05-05 12:23 | 50.47230 | 19.08855 | 1003 ft | 21 kts | 90° |
| 2026-05-05 12:24 | 50.47229 | 19.09079 | 1002 ft | 20 kts | 91° |
| 2026-05-05 12:24 | 50.47228 | 19.09298 | 999 ft | 20 kts | 89° |
| 2026-05-05 12:24 | 50.47228 | 19.09512 | 1000 ft | 19 kts | 90° |
| 2026-05-05 12:24 | 50.47226 | 19.09715 | 997 ft | 18 kts | 88° |
| 2026-05-05 12:25 | 50.47230 | 19.09914 | 1003 ft | 18 kts | 89° |
| 2026-05-05 12:25 | 50.47267 | 19.10090 | 1000 ft | 17 kts | 52° |
| 2026-05-05 12:25 | 50.47341 | 19.10235 | 997 ft | 17 kts | 51° |
| 2026-05-05 12:25 | 50.47401 | 19.10353 | 998 ft | 4 kts | 51° |
| 2026-05-05 12:26 | 50.47417 | 19.10384 | 998 ft | 4 kts | 52° |
| 2026-05-05 12:26 | 50.47432 | 19.10415 | 998 ft | 3 kts | 52° |
| 2026-05-05 12:26 | 50.47475 | 19.10449 | 998 ft | 12 kts | 6° |
| 2026-05-05 12:26 | 50.47557 | 19.10439 | 999 ft | 11 kts | 344° |
| 2026-05-05 12:27 | 50.47590 | 19.10389 | 999 ft | 11 kts | 289° |
| 2026-05-05 12:27 | 50.47591 | 19.10026 | 998 ft | 67 kts | 269° |
| 2026-05-05 12:27 | 50.47594 | 19.08859 | 1000 ft | 143 kts | 267° |
| 2026-05-05 12:27 | 50.47642 | 19.07041 | 1448 ft | 168 kts | 268° |
| 2026-05-05 12:28 | 50.47666 | 19.05885 | 2387 ft | 154 kts | 264° |
| 2026-05-05 12:28 | 50.47638 | 19.04172 | 3169 ft | 166 kts | 260° |
| 2026-05-05 12:28 | 50.47597 | 19.02150 | 3488 ft | 203 kts | 263° |
| 2026-05-05 12:28 | 50.47588 | 18.99814 | 3719 ft | 231 kts | 266° |
| 2026-05-05 12:29 | 50.47434 | 18.97278 | 4275 ft | 232 kts | 245° |
| 2026-05-05 12:29 | 50.46538 | 18.95228 | 5033 ft | 227 kts | 218° |
| 2026-05-05 12:29 | 50.45158 | 18.94037 | 5741 ft | 228 kts | 195° |
| 2026-05-05 12:29 | 50.43575 | 18.93979 | 6501 ft | 231 kts | 174° |
| 2026-05-05 12:30 | 50.42020 | 18.94698 | 7091 ft | 240 kts | 163° |
| 2026-05-05 12:30 | 50.40454 | 18.95704 | 7719 ft | 245 kts | 162° |
| 2026-05-05 12:30 | 50.38890 | 18.96764 | 8447 ft | 246 kts | 162° |
| 2026-05-05 12:30 | 50.37305 | 18.97837 | 9078 ft | 251 kts | 162° |
| 2026-05-05 12:31 | 50.35649 | 18.98948 | 9505 ft | 270 kts | 162° |
| 2026-05-05 12:31 | 50.33870 | 19.00128 | 10101 ft | 283 kts | 162° |
| 2026-05-05 12:31 | 50.31971 | 19.01380 | 10325 ft | 309 kts | 162° |
| 2026-05-05 12:31 | 50.29910 | 19.02731 | 10513 ft | 334 kts | 161° |
| 2026-05-05 12:32 | 50.27686 | 19.04186 | 10693 ft | 356 kts | 161° |
| 2026-05-05 12:32 | 50.25356 | 19.05712 | 11143 ft | 367 kts | 161° |
| 2026-05-05 12:32 | 50.23016 | 19.07246 | 11811 ft | 370 kts | 161° |
| 2026-05-05 12:32 | 50.20628 | 19.08809 | 12546 ft | 373 kts | 160° |
| 2026-05-05 12:33 | 50.18217 | 19.10381 | 13275 ft | 377 kts | 160° |
| 2026-05-05 12:33 | 50.15782 | 19.11961 | 14002 ft | 381 kts | 160° |
| 2026-05-05 12:33 | 50.13341 | 19.13545 | 14755 ft | 382 kts | 160° |
| 2026-05-05 12:33 | 50.10869 | 19.15146 | 15502 ft | 385 kts | 160° |
| 2026-05-05 12:34 | 50.08384 | 19.16752 | 16209 ft | 389 kts | 160° |
| 2026-05-05 12:34 | 50.05866 | 19.18377 | 16917 ft | 392 kts | 160° |
| 2026-05-05 12:34 | 50.03363 | 19.19990 | 17611 ft | 396 kts | 160° |
| 2026-05-05 12:34 | 50.00804 | 19.21637 | 18282 ft | 399 kts | 160° |
| 2026-05-05 12:35 | 49.98224 | 19.23297 | 18836 ft | 403 kts | 160° |
| 2026-05-05 12:35 | 49.95603 | 19.24979 | 19326 ft | 409 kts | 160° |
| 2026-05-05 12:35 | 49.92960 | 19.26670 | 19898 ft | 412 kts | 160° |
| 2026-05-05 12:35 | 49.90299 | 19.28377 | 20451 ft | 415 kts | 160° |
| 2026-05-05 12:36 | 49.87647 | 19.30083 | 21017 ft | 418 kts | 161° |
| 2026-05-05 12:36 | 49.84945 | 19.31811 | 21530 ft | 422 kts | 161° |
| 2026-05-05 12:36 | 49.82211 | 19.33553 | 21971 ft | 427 kts | 161° |
| 2026-05-05 12:36 | 49.79450 | 19.35310 | 22405 ft | 431 kts | 161° |
| 2026-05-05 12:37 | 49.76645 | 19.37096 | 22803 ft | 437 kts | 161° |
| 2026-05-05 12:37 | 49.73842 | 19.38873 | 23127 ft | 444 kts | 160° |
| 2026-05-05 12:37 | 49.70960 | 19.40709 | 23518 ft | 448 kts | 160° |
| 2026-05-05 12:37 | 49.68067 | 19.42549 | 23932 ft | 450 kts | 160° |
| 2026-05-05 12:38 | 49.65146 | 19.44319 | 24421 ft | 449 kts | 165° |
| 2026-05-05 12:38 | 49.62064 | 19.44942 | 24840 ft | 445 kts | 185° |
| 2026-05-05 12:38 | 49.59086 | 19.44160 | 25441 ft | 437 kts | 198° |
| 2026-05-05 12:38 | 49.56310 | 19.42293 | 25859 ft | 435 kts | 212° |
| 2026-05-05 12:39 | 49.53757 | 19.39787 | 26319 ft | 435 kts | 214° |
| 2026-05-05 12:39 | 49.51206 | 19.37205 | 26583 ft | 440 kts | 214° |
| 2026-05-05 12:39 | 49.48652 | 19.34608 | 26847 ft | 443 kts | 214° |
| 2026-05-05 12:39 | 49.46078 | 19.32011 | 27485 ft | 439 kts | 214° |
| 2026-05-05 12:40 | 49.43515 | 19.29448 | 27961 ft | 438 kts | 214° |
| 2026-05-05 12:40 | 49.40944 | 19.26898 | 28267 ft | 442 kts | 213° |
| 2026-05-05 12:40 | 49.38362 | 19.24353 | 28824 ft | 438 kts | 213° |
| 2026-05-05 12:40 | 49.35818 | 19.21856 | 29704 ft | 429 kts | 213° |
| 2026-05-05 12:41 | 49.33304 | 19.19394 | 30123 ft | 430 kts | 213° |
| 2026-05-05 12:41 | 49.30753 | 19.16898 | 30204 ft | 438 kts | 213° |
| 2026-05-05 12:41 | 49.28193 | 19.14397 | 30665 ft | 434 kts | 213° |
| 2026-05-05 12:41 | 49.25707 | 19.11971 | 31372 ft | 426 kts | 213° |
| 2026-05-05 12:42 | 49.23194 | 19.09521 | 31543 ft | 432 kts | 213° |
| 2026-05-05 12:42 | 49.20640 | 19.07032 | 31712 ft | 436 kts | 213° |
| 2026-05-05 12:42 | 49.18081 | 19.04544 | 32304 ft | 431 kts | 213° |
| 2026-05-05 12:42 | 49.15561 | 19.02097 | 32754 ft | 429 kts | 213° |
| 2026-05-05 12:43 | 49.13020 | 18.99631 | 32891 ft | 435 kts | 213° |
| 2026-05-05 12:43 | 49.10491 | 18.97180 | 33359 ft | 431 kts | 213° |
| 2026-05-05 12:43 | 49.07971 | 18.94741 | 33999 ft | 424 kts | 213° |
| 2026-05-05 12:43 | 49.05472 | 18.92325 | 34204 ft | 427 kts | 213° |
| 2026-05-05 12:44 | 49.00428 | 18.87456 | 34657 ft | 430 kts | 214° |
| 2026-05-05 12:44 | 48.97922 | 18.85043 | 35086 ft | 427 kts | 214° |
| 2026-05-05 12:44 | 48.95401 | 18.82617 | 35308 ft | 428 kts | 213° |
| 2026-05-05 12:45 | 48.92877 | 18.80192 | 35570 ft | 429 kts | 214° |
| 2026-05-05 12:45 | 48.90349 | 18.77765 | 35824 ft | 429 kts | 214° |
| 2026-05-05 12:45 | 48.85315 | 18.72942 | 35901 ft | 429 kts | 213° |
| 2026-05-05 12:46 | 48.80267 | 18.68117 | 35919 ft | 432 kts | 214° |
| 2026-05-05 12:46 | 48.75177 | 18.63262 | 35910 ft | 432 kts | 214° |
| 2026-05-05 12:47 | 48.70066 | 18.58400 | 35912 ft | 433 kts | 214° |
| 2026-05-05 12:47 | 48.65013 | 18.53445 | 35902 ft | 435 kts | 216° |
| 2026-05-05 12:48 | 48.60011 | 18.48255 | 35880 ft | 435 kts | 216° |
| 2026-05-05 12:48 | 48.55015 | 18.43072 | 35890 ft | 435 kts | 216° |
| 2026-05-05 12:49 | 48.50058 | 18.37980 | 35888 ft | 433 kts | 216° |
| 2026-05-05 12:49 | 48.45070 | 18.32887 | 35898 ft | 432 kts | 216° |
| 2026-05-05 12:50 | 48.40085 | 18.27814 | 35893 ft | 431 kts | 216° |
| 2026-05-05 12:50 | 48.35131 | 18.22784 | 35904 ft | 431 kts | 216° |
| 2026-05-05 12:51 | 48.30134 | 18.17721 | 35892 ft | 432 kts | 216° |
| 2026-05-05 12:51 | 48.25182 | 18.12716 | 35893 ft | 432 kts | 216° |
| 2026-05-05 12:52 | 48.20180 | 18.07672 | 35894 ft | 433 kts | 216° |
| 2026-05-05 12:52 | 48.15164 | 18.02627 | 35896 ft | 434 kts | 216° |
| 2026-05-05 12:53 | 48.10137 | 17.97582 | 35896 ft | 435 kts | 216° |
| 2026-05-05 12:53 | 48.05124 | 17.92564 | 35893 ft | 436 kts | 215° |
| 2026-05-05 12:54 | 47.97556 | 17.85010 | 35893 ft | 436 kts | 216° |
| 2026-05-05 12:55 | 47.92489 | 17.79967 | 35895 ft | 436 kts | 216° |
| 2026-05-05 12:55 | 47.87434 | 17.74947 | 35891 ft | 436 kts | 215° |
| 2026-05-05 12:56 | 47.82390 | 17.69949 | 35898 ft | 435 kts | 216° |
| 2026-05-05 12:56 | 47.77413 | 17.64921 | 35900 ft | 434 kts | 218° |
| 2026-05-05 12:57 | 47.72615 | 17.59440 | 35910 ft | 433 kts | 220° |
| 2026-05-05 12:57 | 47.67874 | 17.53911 | 35903 ft | 433 kts | 220° |
| 2026-05-05 12:58 | 47.63118 | 17.48411 | 35900 ft | 433 kts | 220° |
| 2026-05-05 12:58 | 47.58381 | 17.42982 | 35903 ft | 433 kts | 219° |
| 2026-05-05 12:59 | 47.53608 | 17.37535 | 35901 ft | 433 kts | 219° |
| 2026-05-05 12:59 | 47.48846 | 17.32117 | 35916 ft | 433 kts | 219° |
| 2026-05-05 13:00 | 47.41665 | 17.23968 | 35912 ft | 432 kts | 219° |
| 2026-05-05 13:01 | 47.32144 | 17.13207 | 35902 ft | 432 kts | 220° |
| 2026-05-05 13:01 | 47.27367 | 17.07825 | 35892 ft | 432 kts | 219° |
| 2026-05-05 13:02 | 47.22586 | 17.02453 | 35893 ft | 431 kts | 219° |
| 2026-05-05 13:02 | 47.17840 | 16.97131 | 35900 ft | 431 kts | 219° |
| 2026-05-05 13:03 | 47.13060 | 16.91784 | 35906 ft | 431 kts | 219° |
| 2026-05-05 13:03 | 47.08288 | 16.86459 | 35914 ft | 431 kts | 219° |
| 2026-05-05 13:04 | 47.03507 | 16.81136 | 35901 ft | 431 kts | 219° |
| 2026-05-05 13:04 | 46.98756 | 16.75858 | 35906 ft | 431 kts | 219° |
| 2026-05-05 13:05 | 46.93964 | 16.70546 | 35906 ft | 431 kts | 219° |
| 2026-05-05 13:05 | 46.89182 | 16.65258 | 35916 ft | 431 kts | 219° |
| 2026-05-05 13:06 | 46.84419 | 16.60002 | 35913 ft | 431 kts | 219° |
| 2026-05-05 13:06 | 46.79633 | 16.54733 | 35911 ft | 431 kts | 219° |
| 2026-05-05 13:07 | 46.74846 | 16.49474 | 35932 ft | 430 kts | 219° |
| 2026-05-05 13:07 | 46.70077 | 16.44246 | 35921 ft | 430 kts | 219° |
| 2026-05-05 13:08 | 46.65056 | 16.39450 | 35937 ft | 432 kts | 211° |
| 2026-05-05 13:08 | 46.59788 | 16.35254 | 35930 ft | 431 kts | 210° |
| 2026-05-05 13:09 | 46.54537 | 16.31103 | 35932 ft | 430 kts | 211° |
| 2026-05-05 13:09 | 46.49297 | 16.26909 | 35945 ft | 430 kts | 211° |
| 2026-05-05 13:10 | 46.44052 | 16.22689 | 35949 ft | 430 kts | 211° |
| 2026-05-05 13:10 | 46.38818 | 16.18477 | 35960 ft | 430 kts | 211° |
| 2026-05-05 13:11 | 46.33616 | 16.14300 | 35950 ft | 430 kts | 211° |
| 2026-05-05 13:11 | 46.28386 | 16.10112 | 35973 ft | 429 kts | 211° |
| 2026-05-05 13:12 | 46.23141 | 16.05920 | 35956 ft | 430 kts | 211° |
| 2026-05-05 13:12 | 46.17902 | 16.01743 | 35973 ft | 430 kts | 211° |
| 2026-05-05 13:13 | 46.12682 | 15.97590 | 35976 ft | 431 kts | 211° |
| 2026-05-05 13:13 | 46.07435 | 15.93425 | 35991 ft | 432 kts | 211° |
| 2026-05-05 13:14 | 46.02154 | 15.89243 | 35982 ft | 433 kts | 211° |
| 2026-05-05 13:14 | 45.96851 | 15.85052 | 35994 ft | 434 kts | 211° |
| 2026-05-05 13:15 | 45.91541 | 15.80864 | 35991 ft | 435 kts | 211° |
| 2026-05-05 13:15 | 45.86228 | 15.76684 | 35993 ft | 436 kts | 211° |
| 2026-05-05 13:16 | 45.80934 | 15.72528 | 35994 ft | 436 kts | 211° |
| 2026-05-05 13:16 | 45.75617 | 15.68362 | 35996 ft | 436 kts | 211° |
| 2026-05-05 13:17 | 45.71181 | 15.64894 | 36002 ft | 436 kts | 211° |
| 2026-05-05 13:17 | 45.65844 | 15.60730 | 36000 ft | 436 kts | 211° |
| 2026-05-05 13:18 | 45.60546 | 15.56605 | 36004 ft | 436 kts | 211° |
| 2026-05-05 13:18 | 45.55205 | 15.52456 | 36000 ft | 436 kts | 211° |
| 2026-05-05 13:19 | 45.49881 | 15.48328 | 35992 ft | 435 kts | 210° |
| 2026-05-05 13:19 | 45.44549 | 15.44203 | 35997 ft | 435 kts | 210° |
| 2026-05-05 13:20 | 45.39220 | 15.40090 | 36003 ft | 435 kts | 210° |
| 2026-05-05 13:20 | 45.33921 | 15.36006 | 35997 ft | 435 kts | 210° |
| 2026-05-05 13:21 | 45.28582 | 15.31902 | 36000 ft | 435 kts | 211° |
| 2026-05-05 13:21 | 45.23273 | 15.27768 | 36007 ft | 435 kts | 211° |
| 2026-05-05 13:22 | 45.17980 | 15.23584 | 36012 ft | 435 kts | 211° |
| 2026-05-05 13:22 | 45.12716 | 15.19431 | 36008 ft | 436 kts | 212° |
| 2026-05-05 13:23 | 45.07409 | 15.15262 | 36022 ft | 435 kts | 212° |
| 2026-05-05 13:23 | 45.02112 | 15.11113 | 36024 ft | 435 kts | 212° |
| 2026-05-05 13:24 | 44.96804 | 15.06967 | 36014 ft | 435 kts | 212° |
| 2026-05-05 13:24 | 44.91544 | 15.02866 | 36023 ft | 434 kts | 212° |
| 2026-05-05 13:25 | 44.86258 | 14.98754 | 36037 ft | 433 kts | 212° |
| 2026-05-05 13:25 | 44.80972 | 14.94649 | 36035 ft | 434 kts | 212° |
| 2026-05-05 13:26 | 44.75672 | 14.90544 | 36027 ft | 435 kts | 212° |
| 2026-05-05 13:26 | 44.70392 | 14.86461 | 36032 ft | 435 kts | 212° |
| 2026-05-05 13:27 | 44.65083 | 14.82366 | 36041 ft | 435 kts | 212° |
| 2026-05-05 13:27 | 44.59765 | 14.78272 | 36028 ft | 435 kts | 212° |
| 2026-05-05 13:28 | 44.54449 | 14.74188 | 36032 ft | 436 kts | 213° |
| 2026-05-05 13:28 | 44.49141 | 14.70119 | 36033 ft | 437 kts | 212° |
| 2026-05-05 13:29 | 44.43794 | 14.66028 | 36047 ft | 437 kts | 212° |
| 2026-05-05 13:29 | 44.38445 | 14.61945 | 36036 ft | 438 kts | 213° |
| 2026-05-05 13:30 | 44.33109 | 14.57880 | 36033 ft | 439 kts | 213° |
| 2026-05-05 13:30 | 44.27735 | 14.53795 | 36046 ft | 440 kts | 213° |
| 2026-05-05 13:31 | 44.22342 | 14.49703 | 36031 ft | 440 kts | 213° |